Washburn, Tennessee
Current Conditions -  °F | °C
As of 2:55 PM on Sunday 23 Nov 2014 (Local Time) from KMOR Reporting Station
Few Clouds Few Clouds  
Wind Chill: 57°   Ceiling: Unl
Heat Index: 57°   Visibility: 10mi
Dew Point: 50°   Wind: 16mph
Humidity: 77%   Direction: 100°E
Pressure: 29.76"   Gusts: NA
Location:  36.3°N, 83.6°W
Report Text: KMOR 231955Z AUTO 10014KT 10SM FEW095 14/10 A2976 RMK
Loading
Personal Weather Stations






























Interactive Weather Map New forecast layout! Learn more

10-Day Weather Forecast

Advertisements
Track Severe Weather on mobile